sensor_id;sensor_type;location;lat;lon;timestamp;P1;durP1;ratioP1;P2;durP2;ratioP2
11443;SDS011;5778;47.856;12.154;2023-05-10T00:01:00;0.60;;;0.60;;
11443;SDS011;5778;47.856;12.154;2023-05-10T00:03:27;0.93;;;0.73;;
11443;SDS011;5778;47.856;12.154;2023-05-10T00:05:54;0.70;;;0.70;;
11443;SDS011;5778;47.856;12.154;2023-05-10T00:08:23;0.73;;;0.73;;
11443;SDS011;5778;47.856;12.154;2023-05-10T00:10:50;0.63;;;0.60;;
11443;SDS011;5778;47.856;12.154;2023-05-10T00:13:18;0.60;;;0.60;;
11443;SDS011;5778;47.856;12.154;2023-05-10T00:15:45;0.70;;;0.70;;
11443;SDS011;5778;47.856;12.154;2023-05-10T00:18:12;0.80;;;0.80;;
11443;SDS011;5778;47.856;12.154;2023-05-10T00:20:39;0.80;;;0.80;;
11443;SDS011;5778;47.856;12.154;2023-05-10T00:23:06;1.17;;;0.83;;
11443;SDS011;5778;47.856;12.154;2023-05-10T00:25:34;0.80;;;0.80;;
11443;SDS011;5778;47.856;12.154;2023-05-10T00:28:01;1.00;;;0.80;;
11443;SDS011;5778;47.856;12.154;2023-05-10T00:30:29;1.03;;;0.70;;
11443;SDS011;5778;47.856;12.154;2023-05-10T00:32:56;1.53;;;0.80;;
11443;SDS011;5778;47.856;12.154;2023-05-10T00:35:23;2.57;;;0.90;;
11443;SDS011;5778;47.856;12.154;2023-05-10T00:37:50;0.80;;;0.80;;
11443;SDS011;5778;47.856;12.154;2023-05-10T00:40:17;0.90;;;0.90;;
11443;SDS011;5778;47.856;12.154;2023-05-10T00:42:49;0.50;;;0.50;;
11443;SDS011;5778;47.856;12.154;2023-05-10T00:45:17;0.60;;;0.50;;
11443;SDS011;5778;47.856;12.154;2023-05-10T00:47:44;0.70;;;0.70;;
11443;SDS011;5778;47.856;12.154;2023-05-10T00:50:11;0.50;;;0.50;;
11443;SDS011;5778;47.856;12.154;2023-05-10T00:52:39;0.70;;;0.70;;
11443;SDS011;5778;47.856;12.154;2023-05-10T00:55:07;0.50;;;0.50;;
11443;SDS011;5778;47.856;12.154;2023-05-10T00:57:36;0.60;;;0.50;;
11443;SDS011;5778;47.856;12.154;2023-05-10T01:00:06;0.90;;;0.50;;
11443;SDS011;5778;47.856;12.154;2023-05-10T01:02:34;0.73;;;0.60;;
11443;SDS011;5778;47.856;12.154;2023-05-10T01:05:02;0.40;;;0.40;;
11443;SDS011;5778;47.856;12.154;2023-05-10T01:07:30;1.07;;;0.60;;
11443;SDS011;5778;47.856;12.154;2023-05-10T01:09:57;0.70;;;0.50;;
11443;SDS011;5778;47.856;12.154;2023-05-10T01:12:25;0.63;;;0.63;;
11443;SDS011;5778;47.856;12.154;2023-05-10T01:14:52;1.33;;;0.50;;
11443;SDS011;5778;47.856;12.154;2023-05-10T01:17:20;1.53;;;0.60;;
11443;SDS011;5778;47.856;12.154;2023-05-10T01:19:48;1.40;;;0.80;;
11443;SDS011;5778;47.856;12.154;2023-05-10T01:22:25;0.90;;;0.60;;
11443;SDS011;5778;47.856;12.154;2023-05-10T01:25:18;0.33;;;0.33;;
11443;SDS011;5778;47.856;12.154;2023-05-10T01:31:07;0.50;;;0.50;;
11443;SDS011;5778;47.856;12.154;2023-05-10T01:33:45;0.87;;;0.40;;
11443;SDS011;5778;47.856;12.154;2023-05-10T01:36:19;0.47;;;0.47;;
11443;SDS011;5778;47.856;12.154;2023-05-10T01:38:55;1.17;;;0.97;;
11443;SDS011;5778;47.856;12.154;2023-05-10T01:41:31;0.60;;;0.60;;
11443;SDS011;5778;47.856;12.154;2023-05-10T01:44:09;1.13;;;1.03;;
11443;SDS011;5778;47.856;12.154;2023-05-10T01:46:44;0.50;;;0.50;;
11443;SDS011;5778;47.856;12.154;2023-05-10T01:49:19;0.60;;;0.60;;
11443;SDS011;5778;47.856;12.154;2023-05-10T01:51:51;0.70;;;0.70;;
11443;SDS011;5778;47.856;12.154;2023-05-10T01:54:21;0.83;;;0.70;;
11443;SDS011;5778;47.856;12.154;2023-05-10T01:56:50;0.57;;;0.57;;
11443;SDS011;5778;47.856;12.154;2023-05-10T01:59:22;0.50;;;0.50;;
11443;SDS011;5778;47.856;12.154;2023-05-10T02:01:56;0.70;;;0.70;;
11443;SDS011;5778;47.856;12.154;2023-05-10T02:04:26;0.60;;;0.60;;
11443;SDS011;5778;47.856;12.154;2023-05-10T02:06:54;1.50;;;0.70;;
11443;SDS011;5778;47.856;12.154;2023-05-10T02:09:23;0.50;;;0.50;;
11443;SDS011;5778;47.856;12.154;2023-05-10T02:11:54;0.73;;;0.60;;
11443;SDS011;5778;47.856;12.154;2023-05-10T02:14:23;0.50;;;0.50;;
11443;SDS011;5778;47.856;12.154;2023-05-10T02:16:53;1.20;;;0.50;;
11443;SDS011;5778;47.856;12.154;2023-05-10T02:19:21;7.40;;;0.70;;
11443;SDS011;5778;47.856;12.154;2023-05-10T02:21:51;0.50;;;0.50;;
11443;SDS011;5778;47.856;12.154;2023-05-10T02:24:19;0.73;;;0.60;;
11443;SDS011;5778;47.856;12.154;2023-05-10T02:26:48;0.50;;;0.50;;
11443;SDS011;5778;47.856;12.154;2023-05-10T02:29:17;0.50;;;0.50;;
11443;SDS011;5778;47.856;12.154;2023-05-10T02:31:46;0.43;;;0.40;;
11443;SDS011;5778;47.856;12.154;2023-05-10T02:34:15;0.87;;;0.40;;
11443;SDS011;5778;47.856;12.154;2023-05-10T02:36:44;0.43;;;0.43;;
11443;SDS011;5778;47.856;12.154;2023-05-10T02:39:13;1.53;;;0.47;;
11443;SDS011;5778;47.856;12.154;2023-05-10T02:41:42;0.53;;;0.50;;
11443;SDS011;5778;47.856;12.154;2023-05-10T02:44:09;0.60;;;0.60;;
11443;SDS011;5778;47.856;12.154;2023-05-10T02:46:38;0.73;;;0.60;;
11443;SDS011;5778;47.856;12.154;2023-05-10T02:49:05;2.57;;;0.70;;
11443;SDS011;5778;47.856;12.154;2023-05-10T02:51:34;1.23;;;0.70;;
11443;SDS011;5778;47.856;12.154;2023-05-10T02:54:05;0.63;;;0.30;;
11443;SDS011;5778;47.856;12.154;2023-05-10T02:56:39;1.20;;;0.63;;
11443;SDS011;5778;47.856;12.154;2023-05-10T02:59:13;1.27;;;0.40;;
11443;SDS011;5778;47.856;12.154;2023-05-10T03:01:40;0.93;;;0.70;;
11443;SDS011;5778;47.856;12.154;2023-05-10T03:04:08;1.07;;;0.50;;
11443;SDS011;5778;47.856;12.154;2023-05-10T03:06:35;1.23;;;0.40;;
11443;SDS011;5778;47.856;12.154;2023-05-10T03:09:03;0.50;;;0.50;;
11443;SDS011;5778;47.856;12.154;2023-05-10T03:11:39;0.83;;;0.60;;
11443;SDS011;5778;47.856;12.154;2023-05-10T03:14:21;1.10;;;0.50;;
11443;SDS011;5778;47.856;12.154;2023-05-10T03:17:00;0.63;;;0.50;;
11443;SDS011;5778;47.856;12.154;2023-05-10T03:19:39;0.40;;;0.40;;
11443;SDS011;5778;47.856;12.154;2023-05-10T03:22:11;0.53;;;0.50;;
11443;SDS011;5778;47.856;12.154;2023-05-10T03:24:44;0.43;;;0.43;;
11443;SDS011;5778;47.856;12.154;2023-05-10T03:27:14;1.23;;;0.50;;
11443;SDS011;5778;47.856;12.154;2023-05-10T03:29:42;0.50;;;0.50;;
11443;SDS011;5778;47.856;12.154;2023-05-10T03:32:12;0.63;;;0.60;;
11443;SDS011;5778;47.856;12.154;2023-05-10T03:34:41;0.60;;;0.60;;
11443;SDS011;5778;47.856;12.154;2023-05-10T03:37:08;1.43;;;0.47;;
11443;SDS011;5778;47.856;12.154;2023-05-10T03:39:35;0.67;;;0.37;;
11443;SDS011;5778;47.856;12.154;2023-05-10T03:42:05;1.10;;;0.40;;
11443;SDS011;5778;47.856;12.154;2023-05-10T03:44:34;0.63;;;0.47;;
11443;SDS011;5778;47.856;12.154;2023-05-10T03:47:01;1.40;;;0.77;;
11443;SDS011;5778;47.856;12.154;2023-05-10T03:49:28;0.60;;;0.60;;
11443;SDS011;5778;47.856;12.154;2023-05-10T03:51:55;0.50;;;0.50;;
11443;SDS011;5778;47.856;12.154;2023-05-10T03:54:22;0.70;;;0.40;;
11443;SDS011;5778;47.856;12.154;2023-05-10T03:56:48;1.33;;;0.50;;
11443;SDS011;5778;47.856;12.154;2023-05-10T03:59:17;1.13;;;0.40;;
11443;SDS011;5778;47.856;12.154;2023-05-10T04:01:46;0.33;;;0.33;;
11443;SDS011;5778;47.856;12.154;2023-05-10T04:04:13;0.40;;;0.40;;
11443;SDS011;5778;47.856;12.154;2023-05-10T04:06:40;0.40;;;0.40;;
11443;SDS011;5778;47.856;12.154;2023-05-10T04:09:06;0.80;;;0.47;;
11443;SDS011;5778;47.856;12.154;2023-05-10T04:11:34;0.50;;;0.50;;
11443;SDS011;5778;47.856;12.154;2023-05-10T04:14:01;1.77;;;0.80;;
11443;SDS011;5778;47.856;12.154;2023-05-10T04:16:28;1.37;;;1.20;;
11443;SDS011;5778;47.856;12.154;2023-05-10T04:18:57;1.30;;;1.10;;
11443;SDS011;5778;47.856;12.154;2023-05-10T04:21:24;1.13;;;0.87;;
11443;SDS011;5778;47.856;12.154;2023-05-10T04:23:51;0.90;;;0.70;;
11443;SDS011;5778;47.856;12.154;2023-05-10T04:26:19;0.57;;;0.57;;
11443;SDS011;5778;47.856;12.154;2023-05-10T04:28:45;1.07;;;0.60;;
11443;SDS011;5778;47.856;12.154;2023-05-10T04:31:12;0.87;;;0.60;;
11443;SDS011;5778;47.856;12.154;2023-05-10T04:33:41;0.50;;;0.50;;
11443;SDS011;5778;47.856;12.154;2023-05-10T04:36:10;1.37;;;0.80;;
11443;SDS011;5778;47.856;12.154;2023-05-10T04:38:37;0.70;;;0.70;;
11443;SDS011;5778;47.856;12.154;2023-05-10T04:41:04;0.50;;;0.50;;
11443;SDS011;5778;47.856;12.154;2023-05-10T04:46:36;2.57;;;0.60;;
11443;SDS011;5778;47.856;12.154;2023-05-10T04:49:03;2.67;;;0.60;;
11443;SDS011;5778;47.856;12.154;2023-05-10T04:51:32;0.63;;;0.50;;
11443;SDS011;5778;47.856;12.154;2023-05-10T04:54:01;0.67;;;0.60;;
11443;SDS011;5778;47.856;12.154;2023-05-10T04:56:28;1.77;;;0.53;;
11443;SDS011;5778;47.856;12.154;2023-05-10T04:58:55;1.80;;;0.50;;
11443;SDS011;5778;47.856;12.154;2023-05-10T05:01:22;1.33;;;0.70;;
11443;SDS011;5778;47.856;12.154;2023-05-10T05:03:54;0.93;;;0.50;;
11443;SDS011;5778;47.856;12.154;2023-05-10T05:06:21;0.63;;;0.50;;
11443;SDS011;5778;47.856;12.154;2023-05-10T05:08:51;0.77;;;0.77;;
11443;SDS011;5778;47.856;12.154;2023-05-10T05:11:18;1.13;;;0.60;;
11443;SDS011;5778;47.856;12.154;2023-05-10T05:13:46;2.87;;;0.80;;
11443;SDS011;5778;47.856;12.154;2023-05-10T05:16:13;2.53;;;0.77;;
11443;SDS011;5778;47.856;12.154;2023-05-10T05:18:40;2.53;;;0.90;;
11443;SDS011;5778;47.856;12.154;2023-05-10T05:21:13;1.30;;;0.73;;
11443;SDS011;5778;47.856;12.154;2023-05-10T05:23:56;3.60;;;0.67;;
11443;SDS011;5778;47.856;12.154;2023-05-10T05:26:23;1.57;;;0.60;;
11443;SDS011;5778;47.856;12.154;2023-05-10T05:28:50;1.10;;;0.57;;
11443;SDS011;5778;47.856;12.154;2023-05-10T05:31:19;2.93;;;0.90;;
11443;SDS011;5778;47.856;12.154;2023-05-10T05:33:47;1.03;;;0.70;;
11443;SDS011;5778;47.856;12.154;2023-05-10T05:36:14;1.87;;;0.57;;
11443;SDS011;5778;47.856;12.154;2023-05-10T05:38:41;1.23;;;0.80;;
11443;SDS011;5778;47.856;12.154;2023-05-10T05:41:10;3.33;;;1.37;;
11443;SDS011;5778;47.856;12.154;2023-05-10T05:43:55;1.97;;;0.90;;
11443;SDS011;5778;47.856;12.154;2023-05-10T05:46:22;1.90;;;0.70;;
11443;SDS011;5778;47.856;12.154;2023-05-10T05:48:49;3.90;;;1.13;;
11443;SDS011;5778;47.856;12.154;2023-05-10T05:51:16;3.63;;;0.90;;
11443;SDS011;5778;47.856;12.154;2023-05-10T05:53:43;2.47;;;0.80;;
11443;SDS011;5778;47.856;12.154;2023-05-10T05:56:12;2.07;;;0.80;;
11443;SDS011;5778;47.856;12.154;2023-05-10T05:58:39;1.00;;;0.90;;
11443;SDS011;5778;47.856;12.154;2023-05-10T06:01:06;0.87;;;0.70;;
11443;SDS011;5778;47.856;12.154;2023-05-10T06:03:35;1.17;;;0.70;;
11443;SDS011;5778;47.856;12.154;2023-05-10T06:06:02;0.97;;;0.40;;
11443;SDS011;5778;47.856;12.154;2023-05-10T06:08:29;2.00;;;0.50;;
11443;SDS011;5778;47.856;12.154;2023-05-10T06:10:55;0.73;;;0.73;;
11443;SDS011;5778;47.856;12.154;2023-05-10T06:13:24;1.57;;;0.60;;
11443;SDS011;5778;47.856;12.154;2023-05-10T06:15:54;2.80;;;0.60;;
11443;SDS011;5778;47.856;12.154;2023-05-10T06:18:21;1.77;;;0.90;;
11443;SDS011;5778;47.856;12.154;2023-05-10T06:20:49;1.73;;;0.73;;
11443;SDS011;5778;47.856;12.154;2023-05-10T06:23:16;0.80;;;0.80;;
11443;SDS011;5778;47.856;12.154;2023-05-10T06:25:43;0.50;;;0.50;;
11443;SDS011;5778;47.856;12.154;2023-05-10T06:28:10;0.70;;;0.70;;
11443;SDS011;5778;47.856;12.154;2023-05-10T06:30:39;2.73;;;0.90;;
11443;SDS011;5778;47.856;12.154;2023-05-10T06:33:05;1.43;;;1.17;;
11443;SDS011;5778;47.856;12.154;2023-05-10T06:35:32;1.60;;;1.20;;
11443;SDS011;5778;47.856;12.154;2023-05-10T06:37:59;2.87;;;1.70;;
11443;SDS011;5778;47.856;12.154;2023-05-10T06:40:26;2.83;;;1.30;;
11443;SDS011;5778;47.856;12.154;2023-05-10T06:42:53;2.50;;;1.20;;
11443;SDS011;5778;47.856;12.154;2023-05-10T06:45:20;5.27;;;1.60;;
11443;SDS011;5778;47.856;12.154;2023-05-10T06:47:48;2.87;;;1.50;;
11443;SDS011;5778;47.856;12.154;2023-05-10T06:50:15;1.23;;;0.77;;
11443;SDS011;5778;47.856;12.154;2023-05-10T06:52:42;0.93;;;0.60;;
11443;SDS011;5778;47.856;12.154;2023-05-10T06:55:17;2.10;;;0.70;;
11443;SDS011;5778;47.856;12.154;2023-05-10T06:57:44;0.50;;;0.50;;
11443;SDS011;5778;47.856;12.154;2023-05-10T07:00:11;2.23;;;0.73;;
11443;SDS011;5778;47.856;12.154;2023-05-10T07:02:38;0.87;;;0.53;;
11443;SDS011;5778;47.856;12.154;2023-05-10T07:05:21;0.67;;;0.57;;
11443;SDS011;5778;47.856;12.154;2023-05-10T07:07:48;0.57;;;0.57;;
11443;SDS011;5778;47.856;12.154;2023-05-10T07:10:15;1.13;;;0.60;;
11443;SDS011;5778;47.856;12.154;2023-05-10T07:12:42;2.60;;;1.23;;
11443;SDS011;5778;47.856;12.154;2023-05-10T07:17:59;0.70;;;0.70;;
11443;SDS011;5778;47.856;12.154;2023-05-10T07:20:27;0.83;;;0.70;;
11443;SDS011;5778;47.856;12.154;2023-05-10T07:22:54;0.50;;;0.50;;
11443;SDS011;5778;47.856;12.154;2023-05-10T07:28:20;1.13;;;0.53;;
11443;SDS011;5778;47.856;12.154;2023-05-10T07:30:46;0.40;;;0.40;;
11443;SDS011;5778;47.856;12.154;2023-05-10T07:33:14;0.77;;;0.50;;
11443;SDS011;5778;47.856;12.154;2023-05-10T07:35:42;0.53;;;0.50;;
11443;SDS011;5778;47.856;12.154;2023-05-10T07:38:09;0.57;;;0.47;;
11443;SDS011;5778;47.856;12.154;2023-05-10T07:40:39;0.80;;;0.50;;
11443;SDS011;5778;47.856;12.154;2023-05-10T07:43:06;0.93;;;0.70;;
11443;SDS011;5778;47.856;12.154;2023-05-10T07:45:33;0.60;;;0.60;;
11443;SDS011;5778;47.856;12.154;2023-05-10T07:47:59;1.17;;;0.80;;
11443;SDS011;5778;47.856;12.154;2023-05-10T07:50:26;2.20;;;0.60;;
11443;SDS011;5778;47.856;12.154;2023-05-10T07:52:55;0.60;;;0.60;;
11443;SDS011;5778;47.856;12.154;2023-05-10T07:55:22;0.70;;;0.70;;
11443;SDS011;5778;47.856;12.154;2023-05-10T07:57:48;1.20;;;0.97;;
11443;SDS011;5778;47.856;12.154;2023-05-10T08:00:17;0.73;;;0.73;;
11443;SDS011;5778;47.856;12.154;2023-05-10T08:02:45;1.43;;;0.90;;
11443;SDS011;5778;47.856;12.154;2023-05-10T08:08:23;1.67;;;0.80;;
11443;SDS011;5778;47.856;12.154;2023-05-10T08:10:50;1.07;;;0.80;;
11443;SDS011;5778;47.856;12.154;2023-05-10T08:13:35;1.07;;;0.80;;
11443;SDS011;5778;47.856;12.154;2023-05-10T08:16:02;0.70;;;0.70;;
11443;SDS011;5778;47.856;12.154;2023-05-10T08:18:29;1.20;;;1.10;;
11443;SDS011;5778;47.856;12.154;2023-05-10T08:20:56;1.20;;;1.00;;
11443;SDS011;5778;47.856;12.154;2023-05-10T08:23:31;1.30;;;1.00;;
11443;SDS011;5778;47.856;12.154;2023-05-10T08:25:58;2.70;;;1.60;;
11443;SDS011;5778;47.856;12.154;2023-05-10T08:28:25;2.10;;;1.90;;
11443;SDS011;5778;47.856;12.154;2023-05-10T08:30:52;0.87;;;0.87;;
11443;SDS011;5778;47.856;12.154;2023-05-10T08:33:24;1.87;;;0.97;;
11443;SDS011;5778;47.856;12.154;2023-05-10T08:35:51;1.47;;;0.80;;
11443;SDS011;5778;47.856;12.154;2023-05-10T08:38:18;1.80;;;1.40;;
11443;SDS011;5778;47.856;12.154;2023-05-10T08:40:47;3.03;;;1.93;;
11443;SDS011;5778;47.856;12.154;2023-05-10T08:43:28;2.50;;;1.77;;
11443;SDS011;5778;47.856;12.154;2023-05-10T08:45:55;3.30;;;2.70;;
11443;SDS011;5778;47.856;12.154;2023-05-10T08:48:22;2.50;;;1.57;;
11443;SDS011;5778;47.856;12.154;2023-05-10T08:50:51;1.40;;;1.40;;
11443;SDS011;5778;47.856;12.154;2023-05-10T08:56:39;2.10;;;2.00;;
11443;SDS011;5778;47.856;12.154;2023-05-10T08:59:05;1.50;;;1.33;;
11443;SDS011;5778;47.856;12.154;2023-05-10T09:01:32;1.50;;;1.40;;
11443;SDS011;5778;47.856;12.154;2023-05-10T09:04:16;1.70;;;1.20;;
11443;SDS011;5778;47.856;12.154;2023-05-10T09:06:43;1.43;;;1.23;;
11443;SDS011;5778;47.856;12.154;2023-05-10T09:09:10;1.90;;;1.70;;
11443;SDS011;5778;47.856;12.154;2023-05-10T09:11:38;1.27;;;1.17;;
11443;SDS011;5778;47.856;12.154;2023-05-10T09:14:05;1.37;;;1.10;;
11443;SDS011;5778;47.856;12.154;2023-05-10T09:16:32;2.20;;;1.27;;
11443;SDS011;5778;47.856;12.154;2023-05-10T09:18:59;0.97;;;0.97;;
11443;SDS011;5778;47.856;12.154;2023-05-10T09:21:26;1.20;;;1.10;;
11443;SDS011;5778;47.856;12.154;2023-05-10T09:23:53;1.23;;;1.20;;
11443;SDS011;5778;47.856;12.154;2023-05-10T09:26:22;2.67;;;1.10;;
11443;SDS011;5778;47.856;12.154;2023-05-10T09:28:54;1.77;;;1.03;;
11443;SDS011;5778;47.856;12.154;2023-05-10T09:31:22;1.40;;;1.30;;
11443;SDS011;5778;47.856;12.154;2023-05-10T09:33:50;1.90;;;1.80;;
11443;SDS011;5778;47.856;12.154;2023-05-10T09:36:18;1.60;;;1.40;;
11443;SDS011;5778;47.856;12.154;2023-05-10T09:38:45;6.10;;;5.50;;
11443;SDS011;5778;47.856;12.154;2023-05-10T09:41:17;4.30;;;3.90;;
11443;SDS011;5778;47.856;12.154;2023-05-10T09:43:45;4.40;;;4.10;;
11443;SDS011;5778;47.856;12.154;2023-05-10T09:46:13;1.33;;;1.00;;
11443;SDS011;5778;47.856;12.154;2023-05-10T09:48:41;1.90;;;1.00;;
11443;SDS011;5778;47.856;12.154;2023-05-10T09:51:10;2.57;;;1.20;;
11443;SDS011;5778;47.856;12.154;2023-05-10T09:53:37;1.43;;;1.37;;
11443;SDS011;5778;47.856;12.154;2023-05-10T09:56:04;1.27;;;1.00;;
11443;SDS011;5778;47.856;12.154;2023-05-10T09:58:31;1.97;;;1.00;;
11443;SDS011;5778;47.856;12.154;2023-05-10T10:01:03;1.40;;;1.30;;
11443;SDS011;5778;47.856;12.154;2023-05-10T10:03:32;3.00;;;2.80;;
11443;SDS011;5778;47.856;12.154;2023-05-10T10:05:59;3.60;;;3.30;;
11443;SDS011;5778;47.856;12.154;2023-05-10T10:08:26;2.70;;;2.50;;
11443;SDS011;5778;47.856;12.154;2023-05-10T10:10:53;6.47;;;1.80;;
11443;SDS011;5778;47.856;12.154;2023-05-10T10:13:20;2.87;;;1.50;;
11443;SDS011;5778;47.856;12.154;2023-05-10T10:15:47;3.80;;;1.30;;
11443;SDS011;5778;47.856;12.154;2023-05-10T10:18:16;3.07;;;2.77;;
11443;SDS011;5778;47.856;12.154;2023-05-10T10:20:46;1.53;;;1.40;;
11443;SDS011;5778;47.856;12.154;2023-05-10T10:23:13;1.90;;;1.30;;
11443;SDS011;5778;47.856;12.154;2023-05-10T10:25:40;1.60;;;1.50;;
11443;SDS011;5778;47.856;12.154;2023-05-10T10:28:12;1.70;;;1.13;;
11443;SDS011;5778;47.856;12.154;2023-05-10T10:30:49;1.33;;;1.23;;
11443;SDS011;5778;47.856;12.154;2023-05-10T10:33:40;1.50;;;1.40;;
11443;SDS011;5778;47.856;12.154;2023-05-10T10:36:22;1.80;;;1.40;;
11443;SDS011;5778;47.856;12.154;2023-05-10T10:38:56;1.80;;;1.70;;
11443;SDS011;5778;47.856;12.154;2023-05-10T10:41:29;2.33;;;1.70;;
11443;SDS011;5778;47.856;12.154;2023-05-10T10:47:01;1.93;;;1.37;;
11443;SDS011;5778;47.856;12.154;2023-05-10T10:49:31;1.50;;;1.40;;
11443;SDS011;5778;47.856;12.154;2023-05-10T10:55:02;1.73;;;1.63;;
11443;SDS011;5778;47.856;12.154;2023-05-10T10:57:32;2.80;;;1.87;;
11443;SDS011;5778;47.856;12.154;2023-05-10T11:02:49;0.90;;;0.90;;
11443;SDS011;5778;47.856;12.154;2023-05-10T11:05:24;2.10;;;1.83;;
11443;SDS011;5778;47.856;12.154;2023-05-10T11:08:09;1.30;;;1.20;;
11443;SDS011;5778;47.856;12.154;2023-05-10T11:10:39;1.33;;;0.80;;
11443;SDS011;5778;47.856;12.154;2023-05-10T11:13:07;1.63;;;0.80;;
11443;SDS011;5778;47.856;12.154;2023-05-10T11:15:35;0.77;;;0.73;;
11443;SDS011;5778;47.856;12.154;2023-05-10T11:18:16;1.13;;;0.83;;
11443;SDS011;5778;47.856;12.154;2023-05-10T11:20:45;0.97;;;0.90;;
11443;SDS011;5778;47.856;12.154;2023-05-10T11:23:18;0.90;;;0.90;;
11443;SDS011;5778;47.856;12.154;2023-05-10T11:25:46;2.63;;;1.00;;
11443;SDS011;5778;47.856;12.154;2023-05-10T11:28:16;1.13;;;1.03;;
11443;SDS011;5778;47.856;12.154;2023-05-10T11:30:44;1.43;;;1.30;;
11443;SDS011;5778;47.856;12.154;2023-05-10T11:36:10;1.10;;;0.80;;
11443;SDS011;5778;47.856;12.154;2023-05-10T11:38:39;0.90;;;0.90;;
11443;SDS011;5778;47.856;12.154;2023-05-10T11:41:07;1.03;;;0.97;;
11443;SDS011;5778;47.856;12.154;2023-05-10T11:43:34;1.97;;;0.87;;
11443;SDS011;5778;47.856;12.154;2023-05-10T11:46:03;1.47;;;0.90;;
11443;SDS011;5778;47.856;12.154;2023-05-10T11:48:31;1.23;;;0.70;;
11443;SDS011;5778;47.856;12.154;2023-05-10T11:50:58;0.87;;;0.67;;
11443;SDS011;5778;47.856;12.154;2023-05-10T11:56:21;0.60;;;0.60;;
11443;SDS011;5778;47.856;12.154;2023-05-10T11:58:54;0.60;;;0.60;;
11443;SDS011;5778;47.856;12.154;2023-05-10T12:01:22;1.00;;;0.90;;
11443;SDS011;5778;47.856;12.154;2023-05-10T12:03:55;1.60;;;1.20;;
11443;SDS011;5778;47.856;12.154;2023-05-10T12:06:25;1.90;;;1.10;;
11443;SDS011;5778;47.856;12.154;2023-05-10T12:08:55;1.57;;;1.00;;
11443;SDS011;5778;47.856;12.154;2023-05-10T12:11:24;2.87;;;1.07;;
11443;SDS011;5778;47.856;12.154;2023-05-10T12:13:53;1.97;;;1.00;;
11443;SDS011;5778;47.856;12.154;2023-05-10T12:16:22;0.93;;;0.93;;
11443;SDS011;5778;47.856;12.154;2023-05-10T12:18:49;1.57;;;0.60;;
11443;SDS011;5778;47.856;12.154;2023-05-10T12:21:18;0.70;;;0.70;;
11443;SDS011;5778;47.856;12.154;2023-05-10T12:24:01;0.70;;;0.70;;
11443;SDS011;5778;47.856;12.154;2023-05-10T12:26:30;1.07;;;0.90;;
11443;SDS011;5778;47.856;12.154;2023-05-10T12:29:11;1.50;;;0.73;;
11443;SDS011;5778;47.856;12.154;2023-05-10T12:31:48;2.03;;;0.73;;
11443;SDS011;5778;47.856;12.154;2023-05-10T12:34:31;2.50;;;1.10;;
11443;SDS011;5778;47.856;12.154;2023-05-10T12:36:58;1.07;;;0.97;;
11443;SDS011;5778;47.856;12.154;2023-05-10T12:39:38;1.20;;;0.70;;
11443;SDS011;5778;47.856;12.154;2023-05-10T12:42:06;0.80;;;0.80;;
11443;SDS011;5778;47.856;12.154;2023-05-10T12:44:34;0.90;;;0.67;;
11443;SDS011;5778;47.856;12.154;2023-05-10T12:47:01;1.03;;;0.80;;
11443;SDS011;5778;47.856;12.154;2023-05-10T12:49:28;2.00;;;0.70;;
11443;SDS011;5778;47.856;12.154;2023-05-10T12:51:55;0.93;;;0.93;;
11443;SDS011;5778;47.856;12.154;2023-05-10T12:54:29;1.30;;;1.20;;
11443;SDS011;5778;47.856;12.154;2023-05-10T12:56:57;1.87;;;1.40;;
11443;SDS011;5778;47.856;12.154;2023-05-10T12:59:24;3.13;;;2.30;;
11443;SDS011;5778;47.856;12.154;2023-05-10T13:01:51;1.60;;;1.50;;
11443;SDS011;5778;47.856;12.154;2023-05-10T13:04:26;2.17;;;1.10;;
11443;SDS011;5778;47.856;12.154;2023-05-10T13:06:53;4.30;;;1.83;;
11443;SDS011;5778;47.856;12.154;2023-05-10T13:09:23;3.27;;;1.70;;
11443;SDS011;5778;47.856;12.154;2023-05-10T13:11:51;3.83;;;2.27;;
11443;SDS011;5778;47.856;12.154;2023-05-10T13:17:43;3.97;;;2.73;;
11443;SDS011;5778;47.856;12.154;2023-05-10T13:20:10;2.73;;;1.80;;
11443;SDS011;5778;47.856;12.154;2023-05-10T13:22:37;5.00;;;4.50;;
11443;SDS011;5778;47.856;12.154;2023-05-10T13:25:06;2.20;;;2.00;;
11443;SDS011;5778;47.856;12.154;2023-05-10T13:27:33;1.33;;;1.23;;
11443;SDS011;5778;47.856;12.154;2023-05-10T13:30:01;1.53;;;1.43;;
11443;SDS011;5778;47.856;12.154;2023-05-10T13:32:28;1.13;;;1.00;;
11443;SDS011;5778;47.856;12.154;2023-05-10T13:38:13;1.13;;;0.93;;
11443;SDS011;5778;47.856;12.154;2023-05-10T13:40:41;1.93;;;0.70;;
11443;SDS011;5778;47.856;12.154;2023-05-10T13:43:11;1.03;;;1.00;;
11443;SDS011;5778;47.856;12.154;2023-05-10T13:45:38;1.80;;;1.10;;
11443;SDS011;5778;47.856;12.154;2023-05-10T13:48:05;1.07;;;0.90;;
11443;SDS011;5778;47.856;12.154;2023-05-10T13:50:32;2.10;;;1.30;;
11443;SDS011;5778;47.856;12.154;2023-05-10T13:52:58;1.93;;;1.10;;
11443;SDS011;5778;47.856;12.154;2023-05-10T13:55:32;1.67;;;1.50;;
11443;SDS011;5778;47.856;12.154;2023-05-10T13:57:59;1.20;;;1.20;;
11443;SDS011;5778;47.856;12.154;2023-05-10T14:00:25;1.50;;;1.40;;
11443;SDS011;5778;47.856;12.154;2023-05-10T14:02:53;1.60;;;1.50;;
11443;SDS011;5778;47.856;12.154;2023-05-10T14:05:37;1.57;;;0.90;;
11443;SDS011;5778;47.856;12.154;2023-05-10T14:08:04;2.00;;;1.30;;
11443;SDS011;5778;47.856;12.154;2023-05-10T14:10:32;0.93;;;0.90;;
11443;SDS011;5778;47.856;12.154;2023-05-10T14:12:59;1.20;;;1.10;;
11443;SDS011;5778;47.856;12.154;2023-05-10T14:15:28;1.47;;;1.00;;
11443;SDS011;5778;47.856;12.154;2023-05-10T14:17:55;1.00;;;1.00;;
11443;SDS011;5778;47.856;12.154;2023-05-10T14:20:22;1.27;;;0.80;;
11443;SDS011;5778;47.856;12.154;2023-05-10T14:22:49;0.80;;;0.80;;
11443;SDS011;5778;47.856;12.154;2023-05-10T14:25:16;1.07;;;0.97;;
11443;SDS011;5778;47.856;12.154;2023-05-10T14:27:44;2.10;;;0.90;;
11443;SDS011;5778;47.856;12.154;2023-05-10T14:30:11;1.07;;;0.80;;
11443;SDS011;5778;47.856;12.154;2023-05-10T14:32:39;0.80;;;0.80;;
11443;SDS011;5778;47.856;12.154;2023-05-10T14:35:06;0.70;;;0.70;;
11443;SDS011;5778;47.856;12.154;2023-05-10T14:37:34;1.03;;;0.90;;
11443;SDS011;5778;47.856;12.154;2023-05-10T14:40:00;1.80;;;0.80;;
11443;SDS011;5778;47.856;12.154;2023-05-10T14:42:29;0.80;;;0.80;;
11443;SDS011;5778;47.856;12.154;2023-05-10T14:44:57;1.10;;;1.00;;
11443;SDS011;5778;47.856;12.154;2023-05-10T14:47:24;1.03;;;0.90;;
11443;SDS011;5778;47.856;12.154;2023-05-10T14:49:51;1.30;;;1.20;;
11443;SDS011;5778;47.856;12.154;2023-05-10T14:52:18;1.63;;;1.50;;
11443;SDS011;5778;47.856;12.154;2023-05-10T14:54:45;1.80;;;1.40;;
11443;SDS011;5778;47.856;12.154;2023-05-10T14:57:12;1.50;;;0.90;;
11443;SDS011;5778;47.856;12.154;2023-05-10T14:59:39;1.10;;;1.00;;
11443;SDS011;5778;47.856;12.154;2023-05-10T15:02:08;1.47;;;1.27;;
11443;SDS011;5778;47.856;12.154;2023-05-10T15:04:38;2.63;;;2.30;;
11443;SDS011;5778;47.856;12.154;2023-05-10T15:07:05;1.40;;;1.30;;
11443;SDS011;5778;47.856;12.154;2023-05-10T15:09:32;1.93;;;1.77;;
11443;SDS011;5778;47.856;12.154;2023-05-10T15:11:59;1.93;;;1.50;;
11443;SDS011;5778;47.856;12.154;2023-05-10T15:14:33;3.80;;;2.10;;
11443;SDS011;5778;47.856;12.154;2023-05-10T15:17:01;2.40;;;2.20;;
11443;SDS011;5778;47.856;12.154;2023-05-10T15:19:30;2.13;;;1.93;;
11443;SDS011;5778;47.856;12.154;2023-05-10T15:21:58;2.43;;;1.90;;
11443;SDS011;5778;47.856;12.154;2023-05-10T15:27:29;2.10;;;1.33;;
11443;SDS011;5778;47.856;12.154;2023-05-10T15:29:56;1.07;;;1.07;;
11443;SDS011;5778;47.856;12.154;2023-05-10T15:32:24;1.27;;;0.97;;
11443;SDS011;5778;47.856;12.154;2023-05-10T15:35:05;2.00;;;1.80;;
11443;SDS011;5778;47.856;12.154;2023-05-10T15:37:32;1.20;;;1.20;;
11443;SDS011;5778;47.856;12.154;2023-05-10T15:39:59;1.30;;;1.20;;
11443;SDS011;5778;47.856;12.154;2023-05-10T15:42:28;1.77;;;1.67;;